createdAt,value
2022-08-10T00:02:52.936Z,5.53
2022-08-10T00:07:55.770Z,8.60
2022-08-10T00:12:58.354Z,8.73
2022-08-10T00:18:00.975Z,9.93
2022-08-10T00:23:04.665Z,11.90
2022-08-10T00:28:07.099Z,12.10
2022-08-10T00:33:09.780Z,10.70
2022-08-10T00:38:12.677Z,6.07
2022-08-10T00:43:15.149Z,7.67
2022-08-10T00:48:25.927Z,7.93
2022-08-10T00:53:30.732Z,7.47
2022-08-10T00:58:33.918Z,9.93
2022-08-10T01:04:36.815Z,7.97
2022-08-10T01:09:07.849Z,11.70
2022-08-10T01:14:37.674Z,13.63
2022-08-10T01:19:55.736Z,9.07
2022-08-10T01:25:18.095Z,10.37
2022-08-10T01:30:22.830Z,12.23
2022-08-10T01:35:53.116Z,10.30
2022-08-10T01:41:06.338Z,8.07
2022-08-10T01:46:10.922Z,11.60
2022-08-10T01:51:22.438Z,11.43
2022-08-10T01:56:28.336Z,12.97
2022-08-10T02:01:36.266Z,9.40
2022-08-10T02:06:48.911Z,8.23
2022-08-10T02:12:05.151Z,11.80
2022-08-10T02:17:58.416Z,7.93
2022-08-10T02:22:39.576Z,16.47
2022-08-10T02:27:43.612Z,6.97
2022-08-10T02:32:52.658Z,9.40
2022-08-10T02:38:03.557Z,25.50
2022-08-10T02:45:24.429Z,8.70
2022-08-10T02:48:47.177Z,11.20
2022-08-10T02:53:55.908Z,8.17
2022-08-10T02:59:17.458Z,14.00
2022-08-10T03:04:56.203Z,10.10
2022-08-10T03:09:48.800Z,9.47
2022-08-10T03:14:51.811Z,9.50
2022-08-10T03:20:34.466Z,10.27
2022-08-10T03:25:22.008Z,6.77
2022-08-10T03:30:33.038Z,9.13
2022-08-10T03:35:36.605Z,6.70
2022-08-10T03:40:45.146Z,10.70
2022-08-10T03:45:57.928Z,13.80
2022-08-10T03:51:02.044Z,7.23
2022-08-10T03:56:28.744Z,11.77
2022-08-10T04:02:52.642Z,9.00
2022-08-10T04:06:54.710Z,9.50
2022-08-10T04:11:57.722Z,8.47
2022-08-10T04:17:00.226Z,9.43
2022-08-10T04:22:13.936Z,6.93
2022-08-10T04:27:17.221Z,8.57
2022-08-10T04:32:21.904Z,14.23
2022-08-10T04:37:25.517Z,14.13
2022-08-10T04:42:28.154Z,14.40
2022-08-10T04:48:00.312Z,11.80
2022-08-10T04:52:53.758Z,17.50
2022-08-10T04:57:56.402Z,17.77
2022-08-10T05:02:58.957Z,17.70
2022-08-10T05:08:01.472Z,17.90
2022-08-10T05:13:04.091Z,13.07
2022-08-10T05:18:09.763Z,16.20
2022-08-10T05:23:13.905Z,20.07
2022-08-10T05:28:16.408Z,15.50
2022-08-10T05:33:18.838Z,18.50
2022-08-10T05:38:25.610Z,17.20
2022-08-10T05:43:28.362Z,18.40
2022-08-10T05:48:54.509Z,17.63
2022-08-10T05:54:01.256Z,18.27
2022-08-10T05:59:07.958Z,18.73
2022-08-10T06:04:15.498Z,15.90
2022-08-10T06:09:19.437Z,14.23
2022-08-10T06:14:41.755Z,18.57
2022-08-10T06:19:54.765Z,23.47
2022-08-10T06:25:31.986Z,15.70
2022-08-10T06:30:22.224Z,18.30
2022-08-10T06:35:32.877Z,15.43
2022-08-10T06:40:45.846Z,15.63
2022-08-10T06:46:07.832Z,12.60
2022-08-10T06:51:18.130Z,16.83
2022-08-10T06:56:36.687Z,12.13
2022-08-10T07:01:50.930Z,11.07
2022-08-10T07:06:55.519Z,14.50
2022-08-10T07:12:07.617Z,15.57
2022-08-10T07:17:16.080Z,11.80
2022-08-10T07:23:22.752Z,7.20
2022-08-10T07:27:58.417Z,11.53
2022-08-10T07:33:02.930Z,9.57
2022-08-10T07:38:07.598Z,8.67
2022-08-10T07:43:11.201Z,8.87
2022-08-10T07:48:24.942Z,7.40
2022-08-10T07:53:32.453Z,9.03
2022-08-10T07:58:46.390Z,8.07
2022-08-10T08:04:10.574Z,7.77
2022-08-10T08:09:14.420Z,10.30
2022-08-10T08:14:19.009Z,6.57
2022-08-10T08:19:38.033Z,8.80
2022-08-10T08:24:45.896Z,7.97
2022-08-10T08:29:49.748Z,13.93
2022-08-10T08:34:59.673Z,6.63
2022-08-10T08:40:05.447Z,7.03
2022-08-10T08:45:54.045Z,12.23
2022-08-10T08:51:09.910Z,13.07
2022-08-10T08:56:29.992Z,25.40
2022-08-10T09:01:49.951Z,17.10
2022-08-10T09:06:55.167Z,12.73
2022-08-10T09:12:26.833Z,12.17
2022-08-10T09:17:49.528Z,10.10
2022-08-10T09:23:04.365Z,22.77
2022-08-10T09:28:14.478Z,13.90
2022-08-10T09:36:23.156Z,12.73
2022-08-10T09:39:12.202Z,23.80
2022-08-10T09:44:57.617Z,14.00
2022-08-10T09:51:09.348Z,12.10
2022-08-10T09:56:21.396Z,9.47
2022-08-10T10:02:03.892Z,23.60
2022-08-10T10:07:07.140Z,12.37
2022-08-10T10:12:25.981Z,18.13
2022-08-10T10:18:01.337Z,28.77
2022-08-10T10:23:12.700Z,39.57
2022-08-10T10:28:24.026Z,42.30
2022-08-10T10:33:51.357Z,34.03
2022-08-10T10:38:57.392Z,9.10
2022-08-10T10:44:20.319Z,22.87
2022-08-10T10:49:31.207Z,24.37
2022-08-10T10:54:57.154Z,8.70
2022-08-10T11:00:11.965Z,12.40
2022-08-10T11:05:37.409Z,21.93
2022-08-10T11:10:53.273Z,6.73
2022-08-10T11:16:24.459Z,16.23
2022-08-10T11:21:32.669Z,13.93
2022-08-10T11:26:41.253Z,6.40
2022-08-10T11:31:50.675Z,20.07
2022-08-10T11:37:10.987Z,15.00
2022-08-10T11:42:33.210Z,11.23
2022-08-10T11:48:02.450Z,14.03
2022-08-10T11:53:15.594Z,25.05
2022-08-10T11:58:40.640Z,33.33
2022-08-10T12:03:44.585Z,15.63
2022-08-10T12:10:03.450Z,8.38
2022-08-10T12:14:22.517Z,8.20
2022-08-10T12:19:59.674Z,17.20
2022-08-10T12:25:07.964Z,11.00
2022-08-10T12:30:16.027Z,11.77
2022-08-10T12:36:01.658Z,15.50
2022-08-10T12:42:07.512Z,20.48
2022-08-10T12:47:29.990Z,7.65
2022-08-10T12:52:44.285Z,8.77
2022-08-10T12:57:55.227Z,8.77
2022-08-10T13:03:03.450Z,12.70
2022-08-10T13:08:28.079Z,13.07
2022-08-10T13:13:35.222Z,10.27
2022-08-10T13:18:43.760Z,16.92
2022-08-10T13:24:03.310Z,37.17
2022-08-10T13:29:13.805Z,29.85
2022-08-10T13:34:42.742Z,23.95
2022-08-10T13:39:59.375Z,4.28
2022-08-10T13:45:33.379Z,17.40
2022-08-10T13:50:38.715Z,29.17
2022-08-10T13:55:55.321Z,11.38
2022-08-10T14:01:01.750Z,25.00
2022-08-10T14:06:06.786Z,13.52
2022-08-10T14:11:15.655Z,7.00
2022-08-10T14:16:19.604Z,12.43
2022-08-10T14:21:22.443Z,7.55
2022-08-10T14:26:29.471Z,6.47
2022-08-10T14:31:36.506Z,8.20
2022-08-10T14:36:48.230Z,5.68
2022-08-10T14:42:02.843Z,9.18
2022-08-10T14:47:52.180Z,7.32
2022-08-10T14:52:44.360Z,9.93
2022-08-10T14:58:16.224Z,6.45
2022-08-10T15:03:58.426Z,5.20
2022-08-10T15:08:38.623Z,4.32
2022-08-10T15:14:15.066Z,6.75
2022-08-10T15:20:00.964Z,4.13
2022-08-10T15:24:55.315Z,6.03
2022-08-10T15:29:58.831Z,4.40
2022-08-10T15:35:25.581Z,6.05
2022-08-10T15:40:39.105Z,5.22
2022-08-10T15:46:04.777Z,11.02
2022-08-10T15:51:17.233Z,5.53
2022-08-10T15:56:46.215Z,3.15
2022-08-10T16:02:13.726Z,6.78
2022-08-10T16:07:59.168Z,2.67
2022-08-10T16:13:50.519Z,6.57
2022-08-10T16:18:34.390Z,4.32
2022-08-10T16:23:41.061Z,8.48
2022-08-10T16:28:59.082Z,5.30
2022-08-10T16:34:04.802Z,2.28
2022-08-10T16:39:08.291Z,3.90
2022-08-10T16:44:26.017Z,5.68
2022-08-10T16:49:34.144Z,4.22
2022-08-10T16:54:39.429Z,3.60
2022-08-10T16:59:44.967Z,6.72
2022-08-10T17:04:50.950Z,5.47
2022-08-10T17:09:55.862Z,4.18
2022-08-10T17:15:09.440Z,3.75
2022-08-10T17:20:30.926Z,3.65
2022-08-10T17:25:46.003Z,4.13
2022-08-10T17:30:58.149Z,3.75
2022-08-10T17:36:04.192Z,5.28
2022-08-10T17:41:14.285Z,3.45
2022-08-10T17:46:17.370Z,4.75
2022-08-10T17:51:20.425Z,4.00
2022-08-10T17:56:23.711Z,1.30
2022-08-10T18:01:40.365Z,3.57
2022-08-10T18:06:51.143Z,3.67
2022-08-10T18:12:00.633Z,6.97
2022-08-10T18:17:13.090Z,4.10
2022-08-10T18:22:17.835Z,5.20
2022-08-10T18:27:21.111Z,4.13
2022-08-10T18:32:26.014Z,2.57
2022-08-10T18:37:29.937Z,7.17
2022-08-10T18:42:50.863Z,3.53
2022-08-10T18:48:16.296Z,13.13
2022-08-10T18:53:33.179Z,6.03
2022-08-10T18:59:02.909Z,3.40
2022-08-10T19:04:37.091Z,5.03
2022-08-10T19:10:10.279Z,4.53
2022-08-10T19:15:15.930Z,6.00
2022-08-10T19:20:41.192Z,3.33
2022-08-10T19:26:40.769Z,8.27
2022-08-10T19:31:24.727Z,5.73
2022-08-10T19:37:10.061Z,2.40
2022-08-10T19:42:31.829Z,4.00
2022-08-10T19:47:49.136Z,3.67
2022-08-10T19:53:18.947Z,4.93
2022-08-10T19:58:45.943Z,4.73
2022-08-10T20:03:57.580Z,11.60
2022-08-10T20:09:10.795Z,16.07
2022-08-10T20:14:50.988Z,8.60
2022-08-10T20:20:18.845Z,8.10
2022-08-10T20:25:28.303Z,9.37
2022-08-10T20:30:35.049Z,5.27
2022-08-10T20:35:49.872Z,7.10
2022-08-10T20:41:32.126Z,8.30
2022-08-10T20:46:59.461Z,5.90
2022-08-10T20:52:04.470Z,11.10
2022-08-10T20:58:03.932Z,5.80
2022-08-10T21:03:31.886Z,7.57
2022-08-10T21:09:00.628Z,8.13
2022-08-10T21:14:03.006Z,7.53
2022-08-10T21:19:52.174Z,7.80
2022-08-10T21:25:15.406Z,4.90
2022-08-10T21:30:24.862Z,7.33
2022-08-10T21:35:37.836Z,6.27
2022-08-10T21:41:57.794Z,5.53
2022-08-10T21:48:06.932Z,5.80
2022-08-10T21:59:42.644Z,7.83
2022-08-10T22:05:03.779Z,6.63
2022-08-10T22:10:27.787Z,6.63
2022-08-10T22:16:05.509Z,4.53
2022-08-10T22:21:51.760Z,7.20
2022-08-10T22:27:56.683Z,7.07
2022-08-10T22:31:25.493Z,8.10
2022-08-10T22:33:34.982Z,4.10
2022-08-10T22:38:56.168Z,4.47
2022-08-10T22:44:21.328Z,4.67
2022-08-10T22:49:24.401Z,4.60
2022-08-10T22:54:49.846Z,4.87
2022-08-10T22:59:52.524Z,8.13
2022-08-10T23:05:12.914Z,6.20
2022-08-10T23:10:18.346Z,6.20
2022-08-10T23:15:46.929Z,5.87
2022-08-10T23:20:51.923Z,4.77
2022-08-10T23:25:58.456Z,3.53
2022-08-10T23:31:01.820Z,4.63
2022-08-10T23:36:33.955Z,3.80
2022-08-10T23:41:31.368Z,4.23
2022-08-10T23:46:38.491Z,3.43
2022-08-10T23:51:55.171Z,7.23
2022-08-10T23:57:01.787Z,7.40
